createdAt,value
2023-01-05T00:01:53.944Z,99531.00
2023-01-05T00:04:21.619Z,99554.00
2023-01-05T00:06:49.741Z,99575.00
2023-01-05T00:09:19.397Z,99566.00
2023-01-05T00:12:05.744Z,99563.00
2023-01-05T00:14:53.075Z,99566.00
2023-01-05T00:17:41.773Z,99577.00
2023-01-05T00:20:36.044Z,99580.00
2023-01-05T00:23:04.477Z,99567.00
2023-01-05T00:25:37.460Z,99572.00
2023-01-05T00:28:05.167Z,99575.00
2023-01-05T00:30:50.820Z,99576.00
2023-01-05T00:33:18.699Z,99573.00
2023-01-05T00:35:46.408Z,99569.00
2023-01-05T00:38:13.894Z,99565.00
2023-01-05T00:40:41.584Z,99574.00
2023-01-05T00:43:09.339Z,99567.00
2023-01-05T00:45:36.984Z,99571.00
2023-01-05T00:48:05.179Z,99567.00
2023-01-05T00:50:32.704Z,99570.00
2023-01-05T00:53:02.000Z,99562.00
2023-01-05T00:55:29.801Z,99566.00
2023-01-05T00:57:57.617Z,99575.00
2023-01-05T01:00:25.131Z,99574.00
2023-01-05T01:02:55.631Z,99567.00
2023-01-05T01:05:23.386Z,99583.00
2023-01-05T01:07:51.058Z,99577.00
2023-01-05T01:10:18.929Z,99587.00
2023-01-05T01:12:46.450Z,99585.00
2023-01-05T01:15:14.034Z,99594.00
2023-01-05T01:17:42.996Z,99587.00
2023-01-05T01:20:10.911Z,99605.00
2023-01-05T01:22:38.929Z,99588.00
2023-01-05T01:25:08.638Z,99595.00
2023-01-05T01:27:36.099Z,99605.00
2023-01-05T01:30:06.712Z,99610.00
2023-01-05T01:32:34.112Z,99621.00
2023-01-05T01:35:01.948Z,99619.00
2023-01-05T01:37:29.741Z,99623.00
2023-01-05T01:39:58.538Z,99611.00
2023-01-05T01:42:26.449Z,99613.00
2023-01-05T01:44:59.114Z,99604.00
2023-01-05T01:47:51.731Z,99609.00
2023-01-05T01:50:35.453Z,99614.00
2023-01-05T01:53:21.640Z,99610.00
2023-01-05T01:55:50.168Z,99621.00
2023-01-05T01:58:20.240Z,99614.00
2023-01-05T02:00:48.444Z,99623.00
2023-01-05T02:03:16.252Z,99619.00
2023-01-05T02:05:43.972Z,99610.00
2023-01-05T02:08:14.452Z,99617.00
2023-01-05T02:11:06.332Z,99615.00
2023-01-05T02:13:50.696Z,99613.00
2023-01-05T02:16:36.104Z,99620.00
2023-01-05T02:19:38.693Z,99610.00
2023-01-05T02:22:52.031Z,99608.00
2023-01-05T02:26:11.654Z,99612.00
2023-01-05T02:29:23.652Z,99602.00
2023-01-05T02:32:36.986Z,99607.00
2023-01-05T02:35:43.969Z,99605.00
2023-01-05T02:38:39.570Z,99604.00
2023-01-05T02:41:36.456Z,99606.00
2023-01-05T02:44:08.809Z,99614.00
2023-01-05T02:46:36.973Z,99604.00
2023-01-05T02:49:06.519Z,99613.00
2023-01-05T02:51:39.352Z,99612.00
2023-01-05T02:54:42.416Z,99601.00
2023-01-05T02:57:46.721Z,99603.00
2023-01-05T03:00:27.431Z,99604.00
2023-01-05T03:03:10.149Z,99614.00
2023-01-05T03:06:04.706Z,99605.00
2023-01-05T03:08:41.158Z,99589.00
2023-01-05T03:11:30.248Z,99591.00
2023-01-05T03:14:37.011Z,99607.00
2023-01-05T03:17:07.817Z,99605.00
2023-01-05T03:19:44.652Z,99609.00
2023-01-05T03:22:49.860Z,99606.00
2023-01-05T03:25:41.008Z,99603.00
2023-01-05T03:28:36.085Z,99617.00
2023-01-05T03:31:44.684Z,99606.00
2023-01-05T03:34:44.264Z,99612.00
2023-01-05T03:37:22.562Z,99613.00
2023-01-05T03:39:50.530Z,99620.00
2023-01-05T03:42:18.728Z,99623.00
2023-01-05T03:44:47.318Z,99632.00
2023-01-05T03:47:18.517Z,99626.00
2023-01-05T03:49:47.521Z,99625.00
2023-01-05T03:52:15.001Z,99635.00
2023-01-05T03:54:43.533Z,99636.00
2023-01-05T03:57:11.006Z,99648.00
2023-01-05T03:59:39.405Z,99657.00
2023-01-05T04:02:07.035Z,99656.00
2023-01-05T04:04:34.601Z,99649.00
2023-01-05T04:07:07.611Z,99657.00
2023-01-05T04:09:36.012Z,99660.00
2023-01-05T04:12:04.837Z,99658.00
2023-01-05T04:14:36.334Z,99663.00
2023-01-05T04:17:04.340Z,99658.00
2023-01-05T04:19:31.988Z,99663.00
2023-01-05T04:21:59.796Z,99668.00
2023-01-05T04:24:33.027Z,99670.00
2023-01-05T04:27:02.924Z,99669.00
2023-01-05T04:29:31.012Z,99671.00
2023-01-05T04:32:00.448Z,99680.00
2023-01-05T04:34:28.113Z,99678.00
2023-01-05T04:36:57.787Z,99677.00
2023-01-05T04:39:25.757Z,99669.00
2023-01-05T04:41:54.760Z,99686.00
2023-01-05T04:44:22.240Z,99677.00
2023-01-05T04:46:50.873Z,99683.00
2023-01-05T04:49:19.923Z,99682.00
2023-01-05T04:51:50.187Z,99689.00
2023-01-05T04:54:20.342Z,99696.00
2023-01-05T04:56:48.020Z,99704.00
2023-01-05T04:59:15.429Z,99707.00
2023-01-05T05:01:44.567Z,99691.00
2023-01-05T05:04:14.090Z,99703.00
2023-01-05T05:06:41.715Z,99698.00
2023-01-05T05:09:09.213Z,99701.00
2023-01-05T05:11:38.646Z,99697.00
2023-01-05T05:14:06.437Z,99697.00
2023-01-05T05:16:34.295Z,99699.00
2023-01-05T05:19:02.250Z,99712.00
2023-01-05T05:21:29.679Z,99704.00
2023-01-05T05:23:57.984Z,99709.00
2023-01-05T05:26:25.466Z,99725.00
2023-01-05T05:28:52.909Z,99709.00
2023-01-05T05:31:20.496Z,99710.00
2023-01-05T05:33:47.938Z,99709.00
2023-01-05T05:36:15.927Z,99716.00
2023-01-05T05:38:43.747Z,99721.00
2023-01-05T05:41:11.333Z,99726.00
2023-01-05T05:43:39.269Z,99726.00
2023-01-05T05:46:06.836Z,99727.00
2023-01-05T05:48:34.384Z,99734.00
2023-01-05T05:51:01.701Z,99734.00
2023-01-05T05:53:29.198Z,99737.00
2023-01-05T05:55:56.575Z,99742.00
2023-01-05T05:58:24.236Z,99758.00
2023-01-05T06:00:52.327Z,99750.00
2023-01-05T06:03:19.779Z,99762.00
2023-01-05T06:05:47.331Z,99766.00
2023-01-05T06:08:14.895Z,99769.00
2023-01-05T06:10:42.326Z,99771.00
2023-01-05T06:13:10.197Z,99767.00
2023-01-05T06:15:37.657Z,99762.00
2023-01-05T06:18:05.294Z,99768.00
2023-01-05T06:20:33.094Z,99769.00
2023-01-05T06:23:00.725Z,99774.00
2023-01-05T06:25:28.489Z,99766.00
2023-01-05T06:27:55.871Z,99768.00
2023-01-05T06:30:23.409Z,99776.00
2023-01-05T06:32:51.057Z,99788.00
2023-01-05T06:35:18.551Z,99782.00
2023-01-05T06:37:46.248Z,99783.00
2023-01-05T06:40:14.457Z,99790.00
2023-01-05T06:42:43.066Z,99787.00
2023-01-05T06:45:15.741Z,99785.00
2023-01-05T06:47:44.899Z,99795.00
2023-01-05T06:50:12.732Z,99796.00
2023-01-05T06:52:40.429Z,99788.00
2023-01-05T06:55:14.350Z,99813.00
2023-01-05T06:57:41.745Z,99813.00
2023-01-05T07:00:11.892Z,99821.00
2023-01-05T07:02:39.544Z,99822.00
2023-01-05T07:05:08.340Z,99817.00
2023-01-05T07:07:36.514Z,99822.00
2023-01-05T07:10:05.029Z,99833.00
2023-01-05T07:12:32.707Z,99837.00
2023-01-05T07:15:00.193Z,99829.00
2023-01-05T07:17:27.731Z,99837.00
2023-01-05T07:19:56.048Z,99845.00
2023-01-05T07:22:23.829Z,99850.00
2023-01-05T07:24:51.487Z,99846.00
2023-01-05T07:27:18.837Z,99851.00
2023-01-05T07:29:46.222Z,99853.00
2023-01-05T07:32:13.922Z,99870.00
2023-01-05T07:34:41.414Z,99873.00
2023-01-05T07:37:08.789Z,99873.00
2023-01-05T07:39:36.226Z,99886.00
2023-01-05T07:42:03.839Z,99891.00
2023-01-05T07:44:31.851Z,99896.00
2023-01-05T07:46:59.388Z,99905.00
2023-01-05T07:49:26.847Z,99905.00
2023-01-05T07:51:54.376Z,99909.00
2023-01-05T07:54:21.811Z,99904.00
2023-01-05T07:56:49.426Z,99917.00
2023-01-05T07:59:16.816Z,99922.00
2023-01-05T08:01:44.712Z,99925.00
2023-01-05T08:04:12.403Z,99924.00
2023-01-05T08:06:39.844Z,99941.00
2023-01-05T08:09:25.953Z,99939.00
2023-01-05T08:11:53.725Z,99941.00
2023-01-05T08:14:21.450Z,99940.00
2023-01-05T08:16:49.074Z,99940.00
2023-01-05T08:19:16.520Z,99942.00
2023-01-05T08:21:44.179Z,99946.00
2023-01-05T08:24:11.684Z,99949.00
2023-01-05T08:26:39.383Z,99950.00
2023-01-05T08:29:06.930Z,99955.00
2023-01-05T08:31:37.804Z,99958.00
2023-01-05T08:34:06.498Z,99966.00
2023-01-05T08:36:34.509Z,99961.00
2023-01-05T08:39:01.985Z,99962.00
2023-01-05T08:41:35.977Z,99966.00
2023-01-05T08:44:08.228Z,99964.00
2023-01-05T08:46:36.745Z,99967.00
2023-01-05T08:49:07.027Z,99979.00
2023-01-05T08:51:34.699Z,99969.00
2023-01-05T08:54:02.656Z,99985.00
2023-01-05T08:56:38.107Z,99999.00
2023-01-05T08:59:06.512Z,99983.00
2023-01-05T09:01:34.663Z,99997.00
2023-01-05T09:04:02.791Z,99998.00
2023-01-05T09:06:30.507Z,100014.00
2023-01-05T09:08:57.969Z,100011.00
2023-01-05T09:11:26.446Z,100020.00
2023-01-05T09:13:57.843Z,100021.00
2023-01-05T09:19:17.300Z,100022.00
2023-01-05T09:21:44.878Z,100034.00
2023-01-05T09:24:13.442Z,100034.00
2023-01-05T09:26:42.741Z,100038.00
2023-01-05T09:29:12.235Z,100045.00
2023-01-05T09:31:42.103Z,100053.00
2023-01-05T09:34:10.644Z,100062.00
2023-01-05T09:36:41.525Z,100057.00
2023-01-05T09:39:09.829Z,100061.00
2023-01-05T09:41:54.449Z,100068.00
2023-01-05T09:44:51.535Z,100075.00
2023-01-05T09:47:39.222Z,100081.00
2023-01-05T09:50:34.094Z,100082.00
2023-01-05T09:53:01.891Z,100093.00
2023-01-05T09:55:32.061Z,100093.00
2023-01-05T09:58:11.019Z,100089.00
2023-01-05T10:00:44.962Z,100096.00
2023-01-05T10:03:53.760Z,100095.00
2023-01-05T10:06:15.204Z,100090.00
2023-01-05T10:08:50.655Z,100087.00
2023-01-05T10:11:57.218Z,100092.00
2023-01-05T10:14:44.622Z,100098.00
2023-01-05T10:20:30.265Z,100104.00
2023-01-05T10:23:53.590Z,100096.00
2023-01-05T10:27:13.999Z,100093.00
2023-01-05T10:29:48.436Z,100102.00
2023-01-05T10:33:25.252Z,100100.00
2023-01-05T10:36:28.018Z,100109.00
2023-01-05T10:39:27.538Z,100118.00
2023-01-05T10:42:16.205Z,100122.00
2023-01-05T10:44:56.374Z,100118.00
2023-01-05T10:47:27.612Z,100122.00
2023-01-05T10:49:55.272Z,100127.00
2023-01-05T10:52:24.421Z,100127.00
2023-01-05T10:54:58.482Z,100130.00
2023-01-05T10:57:37.602Z,100134.00
2023-01-05T11:00:14.196Z,100135.00
2023-01-05T11:03:08.563Z,100134.00
2023-01-05T11:05:45.695Z,100141.00
2023-01-05T11:08:20.126Z,100142.00
2023-01-05T11:11:06.097Z,100139.00
2023-01-05T11:13:40.589Z,100141.00
2023-01-05T11:16:13.707Z,100147.00
2023-01-05T11:18:54.013Z,100147.00
2023-01-05T11:21:43.541Z,100148.00
2023-01-05T11:24:34.511Z,100150.00
2023-01-05T11:27:24.853Z,100158.00
2023-01-05T11:30:21.721Z,100159.00
2023-01-05T11:32:49.173Z,100148.00
2023-01-05T11:35:28.489Z,100153.00
2023-01-05T11:37:57.491Z,100165.00
2023-01-05T11:40:31.004Z,100166.00
2023-01-05T11:43:00.393Z,100173.00
2023-01-05T11:45:38.573Z,100185.00
2023-01-05T11:48:08.984Z,100176.00
2023-01-05T11:51:03.071Z,100184.00
2023-01-05T11:53:39.229Z,100193.00
2023-01-05T11:56:18.642Z,100194.00
2023-01-05T11:58:49.543Z,100184.00
2023-01-05T12:01:29.581Z,100190.00
2023-01-05T12:04:21.928Z,100190.00
2023-01-05T12:07:21.327Z,100192.00
2023-01-05T12:09:59.827Z,100195.00
2023-01-05T12:12:45.097Z,100190.00
2023-01-05T12:15:37.486Z,100190.00
2023-01-05T12:18:35.396Z,100186.00
2023-01-05T12:21:38.445Z,100196.00
2023-01-05T12:24:08.760Z,100201.00
2023-01-05T12:26:49.925Z,100197.00
2023-01-05T12:36:08.373Z,100216.00
2023-01-05T12:38:55.209Z,100223.00
2023-01-05T12:41:48.553Z,100221.00
2023-01-05T12:44:52.385Z,100240.00
2023-01-05T12:48:03.644Z,100245.00
2023-01-05T12:51:19.252Z,100242.00
2023-01-05T12:54:06.606Z,100253.00
2023-01-05T12:56:47.127Z,100250.00
2023-01-05T12:59:29.457Z,100249.00
2023-01-05T13:02:21.379Z,100247.00
2023-01-05T13:05:35.636Z,100245.00
2023-01-05T13:08:05.964Z,100247.00
2023-01-05T13:10:50.299Z,100260.00
2023-01-05T13:13:39.723Z,100261.00
2023-01-05T13:16:39.386Z,100259.00
2023-01-05T13:19:19.499Z,100257.00
2023-01-05T13:21:51.597Z,100272.00
2023-01-05T13:24:39.947Z,100273.00
2023-01-05T13:27:07.543Z,100278.00
2023-01-05T13:29:43.765Z,100280.00
2023-01-05T13:32:22.956Z,100288.00
2023-01-05T13:35:43.446Z,100296.00
2023-01-05T13:38:40.647Z,100292.00
2023-01-05T13:41:44.240Z,100296.00
2023-01-05T13:44:42.708Z,100297.00
2023-01-05T13:47:28.567Z,100301.00
2023-01-05T13:50:56.162Z,100310.00
2023-01-05T13:53:26.481Z,100320.00
2023-01-05T13:56:01.629Z,100316.00
2023-01-05T13:58:50.188Z,100335.00
2023-01-05T14:01:41.903Z,100330.00
2023-01-05T14:04:27.375Z,100334.00
2023-01-05T14:07:04.570Z,100339.00
2023-01-05T14:10:03.388Z,100345.00
2023-01-05T14:12:50.172Z,100344.00
2023-01-05T14:15:39.427Z,100343.00
2023-01-05T14:18:52.388Z,100350.00
2023-01-05T14:21:51.387Z,100353.00
2023-01-05T14:24:37.299Z,100359.00
2023-01-05T14:27:24.063Z,100364.00
2023-01-05T14:29:54.298Z,100372.00
2023-01-05T14:32:43.731Z,100378.00
2023-01-05T14:35:23.902Z,100379.00
2023-01-05T14:38:01.439Z,100388.00
2023-01-05T14:40:39.431Z,100384.00
2023-01-05T14:43:24.319Z,100390.00
2023-01-05T14:46:09.991Z,100390.00
2023-01-05T14:48:47.722Z,100395.00
2023-01-05T14:51:26.563Z,100396.00
2023-01-05T14:54:03.574Z,100400.00
2023-01-05T14:56:35.307Z,100414.00
2023-01-05T14:59:26.318Z,100426.00
2023-01-05T15:01:57.318Z,100421.00
2023-01-05T15:04:38.423Z,100435.00
2023-01-05T15:10:41.679Z,100441.00
2023-01-05T15:13:33.195Z,100452.00
2023-01-05T15:16:57.231Z,100456.00
2023-01-05T15:20:01.422Z,100459.00
2023-01-05T15:22:50.650Z,100459.00
2023-01-05T15:25:40.864Z,100461.00
2023-01-05T15:28:22.564Z,100462.00
2023-01-05T15:31:14.948Z,100464.00
2023-01-05T15:34:07.301Z,100470.00
2023-01-05T15:36:54.023Z,100467.00
2023-01-05T15:39:58.315Z,100476.00
2023-01-05T15:42:46.677Z,100478.00
2023-01-05T15:45:33.178Z,100480.00
2023-01-05T15:48:26.613Z,100484.00
2023-01-05T15:50:58.574Z,100492.00
2023-01-05T15:53:35.634Z,100487.00
2023-01-05T15:56:05.555Z,100486.00
2023-01-05T15:58:46.870Z,100494.00
2023-01-05T16:01:16.684Z,100487.00
2023-01-05T16:03:47.066Z,100491.00
2023-01-05T16:06:22.441Z,100496.00
2023-01-05T16:08:56.206Z,100502.00
2023-01-05T16:11:40.052Z,100504.00
2023-01-05T16:14:36.626Z,100509.00
2023-01-05T16:17:16.023Z,100513.00
2023-01-05T16:19:53.365Z,100521.00
2023-01-05T16:22:27.610Z,100522.00
2023-01-05T16:25:17.403Z,100522.00
2023-01-05T16:27:50.134Z,100521.00
2023-01-05T16:30:48.701Z,100521.00
2023-01-05T16:33:35.145Z,100517.00
2023-01-05T16:36:23.127Z,100519.00
2023-01-05T16:38:50.566Z,100524.00
2023-01-05T16:41:26.943Z,100520.00
2023-01-05T16:44:03.975Z,100520.00
2023-01-05T16:46:39.854Z,100523.00
2023-01-05T16:49:27.735Z,100525.00
2023-01-05T16:52:02.239Z,100530.00
2023-01-05T16:54:40.937Z,100537.00
2023-01-05T16:57:41.153Z,100546.00
2023-01-05T17:00:36.997Z,100542.00
2023-01-05T17:03:32.351Z,100549.00
2023-01-05T17:06:01.558Z,100547.00
2023-01-05T17:08:32.021Z,100548.00
2023-01-05T17:11:01.012Z,100546.00
2023-01-05T17:13:38.153Z,100543.00
2023-01-05T17:16:06.222Z,100543.00
2023-01-05T17:18:33.598Z,100556.00
2023-01-05T17:21:03.903Z,100545.00
2023-01-05T17:23:47.561Z,100560.00
2023-01-05T17:26:33.278Z,100564.00
2023-01-05T17:31:35.761Z,100564.00
2023-01-05T17:34:03.545Z,100556.00
2023-01-05T17:36:34.843Z,100573.00
2023-01-05T17:39:03.200Z,100571.00
2023-01-05T17:41:30.935Z,100572.00
2023-01-05T17:43:59.090Z,100568.00
2023-01-05T17:46:32.435Z,100572.00
2023-01-05T17:49:00.871Z,100574.00
2023-01-05T17:51:30.355Z,100579.00
2023-01-05T17:54:01.125Z,100581.00
2023-01-05T17:59:05.157Z,100590.00
2023-01-05T18:01:36.178Z,100588.00
2023-01-05T18:04:04.161Z,100581.00
2023-01-05T18:06:31.780Z,100589.00
2023-01-05T18:08:59.366Z,100582.00
2023-01-05T18:11:26.908Z,100580.00
2023-01-05T18:13:54.471Z,100579.00
2023-01-05T18:16:22.184Z,100579.00
2023-01-05T18:18:49.894Z,100571.00
2023-01-05T18:21:17.455Z,100576.00
2023-01-05T18:23:44.874Z,100578.00
2023-01-05T18:26:12.435Z,100586.00
2023-01-05T18:28:39.929Z,100587.00
2023-01-05T18:31:15.237Z,100587.00
2023-01-05T18:33:42.981Z,100576.00
2023-01-05T18:36:14.055Z,100575.00
2023-01-05T18:38:42.924Z,100580.00
2023-01-05T18:41:11.653Z,100589.00
2023-01-05T18:43:39.591Z,100588.00
2023-01-05T18:46:07.361Z,100587.00
2023-01-05T18:48:35.124Z,100579.00
2023-01-05T18:51:09.534Z,100574.00
2023-01-05T18:53:40.192Z,100595.00
2023-01-05T18:56:10.052Z,100589.00
2023-01-05T18:58:38.081Z,100596.00
2023-01-05T19:01:18.780Z,100589.00
2023-01-05T19:03:47.027Z,100586.00
2023-01-05T19:06:17.622Z,100587.00
2023-01-05T19:08:48.995Z,100586.00
2023-01-05T19:11:28.027Z,100589.00
2023-01-05T19:14:00.640Z,100591.00
2023-01-05T19:16:34.286Z,100593.00
2023-01-05T19:19:08.597Z,100605.00
2023-01-05T19:21:41.700Z,100601.00
2023-01-05T19:24:20.597Z,100600.00
2023-01-05T19:26:51.991Z,100593.00
2023-01-05T19:29:21.496Z,100591.00
2023-01-05T19:31:49.779Z,100591.00
2023-01-05T19:34:19.821Z,100580.00
2023-01-05T19:36:48.229Z,100577.00
2023-01-05T19:39:19.633Z,100588.00
2023-01-05T19:41:49.375Z,100583.00
2023-01-05T19:44:19.653Z,100591.00
2023-01-05T19:46:49.373Z,100589.00
2023-01-05T19:49:26.109Z,100580.00
2023-01-05T19:51:54.741Z,100593.00
2023-01-05T19:54:24.225Z,100586.00
2023-01-05T19:56:53.121Z,100583.00
2023-01-05T19:59:26.354Z,100592.00
2023-01-05T20:01:55.037Z,100588.00
2023-01-05T20:04:22.475Z,100587.00
2023-01-05T20:06:49.916Z,100588.00
2023-01-05T20:09:19.615Z,100586.00
2023-01-05T20:11:51.629Z,100591.00
2023-01-05T20:14:28.230Z,100580.00
2023-01-05T20:17:02.320Z,100575.00
2023-01-05T20:19:32.750Z,100586.00
2023-01-05T20:22:03.431Z,100591.00
2023-01-05T20:24:33.659Z,100592.00
2023-01-05T20:27:09.036Z,100589.00
2023-01-05T20:29:37.568Z,100590.00
2023-01-05T20:32:16.728Z,100592.00
2023-01-05T20:34:52.081Z,100592.00
2023-01-05T20:37:20.698Z,100591.00
2023-01-05T20:39:51.446Z,100591.00
2023-01-05T20:42:19.299Z,100590.00
2023-01-05T20:44:48.358Z,100591.00
2023-01-05T20:47:16.851Z,100588.00
2023-01-05T20:49:48.361Z,100583.00
2023-01-05T20:52:17.979Z,100595.00
2023-01-05T20:54:45.770Z,100599.00
2023-01-05T20:57:15.015Z,100591.00
2023-01-05T20:59:42.535Z,100597.00
2023-01-05T21:02:23.121Z,100596.00
2023-01-05T21:04:53.426Z,100590.00
2023-01-05T21:07:21.947Z,100589.00
2023-01-05T21:09:51.612Z,100588.00
2023-01-05T21:12:20.895Z,100587.00
2023-01-05T21:14:48.627Z,100603.00
2023-01-05T21:17:16.884Z,100596.00
2023-01-05T21:19:47.786Z,100596.00
2023-01-05T21:22:15.984Z,100597.00
2023-01-05T21:24:45.639Z,100597.00
2023-01-05T21:27:13.176Z,100598.00
2023-01-05T21:29:40.619Z,100596.00
2023-01-05T21:32:08.481Z,100596.00
2023-01-05T21:34:36.195Z,100595.00
2023-01-05T21:37:03.690Z,100596.00
2023-01-05T21:39:31.115Z,100598.00
2023-01-05T21:42:19.756Z,100594.00
2023-01-05T21:44:48.307Z,100595.00
2023-01-05T21:47:15.707Z,100591.00
2023-01-05T21:49:43.073Z,100588.00
2023-01-05T21:52:29.653Z,100591.00
2023-01-05T21:55:15.720Z,100588.00
2023-01-05T21:57:43.068Z,100582.00
2023-01-05T22:00:13.076Z,100591.00
2023-01-05T22:02:40.628Z,100574.00
2023-01-05T22:05:08.838Z,100581.00
2023-01-05T22:07:36.562Z,100587.00
2023-01-05T22:10:05.278Z,100580.00
2023-01-05T22:12:32.736Z,100570.00
2023-01-05T22:15:00.075Z,100583.00
2023-01-05T22:17:30.763Z,100575.00
2023-01-05T22:19:58.450Z,100572.00
2023-01-05T22:22:26.053Z,100564.00
2023-01-05T22:24:53.677Z,100570.00
2023-01-05T22:27:21.216Z,100566.00
2023-01-05T22:29:48.936Z,100568.00
2023-01-05T22:32:22.229Z,100569.00
2023-01-05T22:34:49.673Z,100571.00
2023-01-05T22:37:17.220Z,100574.00
2023-01-05T22:39:44.605Z,100576.00
2023-01-05T22:42:12.317Z,100572.00
2023-01-05T22:44:39.825Z,100572.00
2023-01-05T22:47:07.804Z,100575.00
2023-01-05T22:49:35.587Z,100575.00
2023-01-05T22:52:03.523Z,100572.00
2023-01-05T22:54:31.968Z,100570.00
2023-01-05T22:56:59.612Z,100565.00
2023-01-05T22:59:28.558Z,100564.00
2023-01-05T23:01:56.117Z,100571.00
2023-01-05T23:04:23.808Z,100569.00
2023-01-05T23:06:51.253Z,100573.00
2023-01-05T23:09:20.319Z,100568.00
2023-01-05T23:11:48.267Z,100568.00
2023-01-05T23:14:18.680Z,100556.00
2023-01-05T23:16:47.580Z,100547.00
2023-01-05T23:19:17.151Z,100552.00
2023-01-05T23:21:45.615Z,100552.00
2023-01-05T23:24:13.161Z,100538.00
2023-01-05T23:26:40.820Z,100538.00
2023-01-05T23:29:10.787Z,100536.00
2023-01-05T23:31:38.319Z,100538.00
2023-01-05T23:34:06.099Z,100534.00
2023-01-05T23:36:33.858Z,100531.00
2023-01-05T23:39:01.431Z,100528.00
2023-01-05T23:41:29.120Z,100532.00
2023-01-05T23:43:56.805Z,100521.00
2023-01-05T23:46:24.476Z,100526.00
2023-01-05T23:48:53.249Z,100524.00
2023-01-05T23:51:21.467Z,100516.00
2023-01-05T23:53:51.674Z,100511.00
2023-01-05T23:56:25.988Z,100506.00
2023-01-05T23:59:08.260Z,100501.00
